Latest Weather Observations for Cape Sorell

IDT60801

Issued at 10:51 am EST Wednesday 28 September 2022 (issued every 10 minutes, with the page automatically refreshed every 10 minutes)

About weather observations | Map of weather stations | Latest weather observations for TAS | Other Formats
Station Details ID: 097000 Name: CAPE SORELL Lat: -42.20 Lon: 145.17 Height: 19.3 m
Data from the previous 72 hours. | See also: Recent months at Cape Sorell
Date/Time
EST
Temp
°C
App
Temp
°C
Dew
Point
°C
Rel
Hum
%
Delta-T
°C
Wind Press
QNH
hPa
Press
MSL
hPa
Rain since
9am
mm
Dir  Spd
km/h
Gust
km/h
Spd
kts
Gust
kts
28/10:30am 11.9 7.2 7.8 76 2.0 SSW 22 26 12 14 1021.2 1021.2 0.0
28/10:00am 12.2 7.6 8.3 77 1.9 SSW 22 24 12 13 1021.2 1021.2 0.0
28/09:30am 11.7 7.2 8.4 80 1.6 SSW 22 28 12 15 1021.1 1021.1 0.0
28/09:00am 11.3 6.1 8.9 85 1.2 SSW 26 30 14 16 1021.0 1021.0 0.2
28/08:30am 11.0 5.5 9.1 88 0.9 SSW 28 33 15 18 1020.8 1020.8 0.2
28/08:00am 10.9 5.4 9.2 89 0.8 SSW 28 33 15 18 1020.6 1020.6 0.2
28/07:30am 10.4 5.2 9.0 91 0.7 SSW 26 30 14 16 1020.5 1020.5 0.2
28/07:00am 10.3 5.2 9.2 93 0.5 SSW 26 30 14 16 1020.2 1020.2 0.2
28/06:30am 10.5 5.5 9.6 94 0.5 SSW 26 30 14 16 1020.0 1020.0 0.2
28/06:00am 10.5 6.8 9.4 93 0.5 S 19 24 10 13 1019.8 1019.8 0.2
28/05:30am 10.8 8.2 9.2 90 0.8 SSW 13 28 7 15 1019.3 1019.3 0.2
28/05:00am 9.6 7.8 7.9 89 0.8 SSE 7 9 4 5 1019.1 1019.1 0.0
28/04:30am 10.0 7.5 8.4 90 0.8 SSE 11 15 6 8 1018.9 1018.9 0.0
28/04:00am 9.6 7.8 8.0 90 0.8 SSE 7 9 4 5 1018.7 1018.7 0.0
28/03:30am 9.2 7.3 7.5 89 0.8 SSE 7 9 4 5 1018.6 1018.6 0.0
28/03:00am 9.6 7.7 7.7 88 0.9 SSE 7 9 4 5 1018.5 1018.5 0.0
28/02:30am 10.2 8.1 8.1 87 1.0 SSE 9 11 5 6 1018.4 1018.4 0.0
28/02:00am 10.6 8.9 8.2 85 1.2 SSE 7 13 4 7 1018.5 1018.5 0.0
28/01:30am 11.6 8.2 9.2 85 1.2 S 17 22 9 12 1018.6 1018.6 0.0
28/01:00am 11.5 8.1 9.1 85 1.2 S 17 20 9 11 1018.6 1018.6 0.0
28/12:30am 11.4 7.6 9.0 85 1.2 S 19 24 10 13 1018.6 1018.6 0.0
28/12:00am 11.7 7.7 9.1 84 1.3 SSW 20 24 11 13 1018.6 1018.6 0.0
 
Date/Time
EST
Temp
°C
App
Temp
°C
Dew
Point
°C
Rel
Hum
%
Delta-T
°C
Wind Press
QNH
hPa
Press
MSL
hPa
Rain since
9am
mm
Dir  Spd
km/h
Gust
km/h
Spd
kts
Gust
kts
27/11:30pm 11.7 7.3 9.1 84 1.3 SSW 22 26 12 14 1018.5 1018.5 0.0
27/11:00pm 11.8 7.9 9.4 85 1.2 SSW 20 24 11 13 1018.5 1018.5 0.0
27/10:30pm 11.9 8.0 9.5 85 1.2 SSW 20 24 11 13 1018.5 1018.5 0.0
27/10:00pm 12.0 7.8 9.7 86 1.2 SSW 22 26 12 14 1018.6 1018.6 0.0
27/09:30pm 12.1 7.9 9.8 86 1.2 S 22 26 12 14 1018.5 1018.5 0.0
27/09:00pm 12.2 7.6 9.8 85 1.2 SSW 24 30 13 16 1018.6 1018.6 0.0
27/08:30pm 12.2 7.3 9.9 86 1.2 SSW 26 30 14 16 1018.6 1018.6 0.0
27/08:00pm 12.1 6.8 9.8 86 1.2 SSW 28 33 15 18 1018.2 1018.2 0.0
27/07:30pm 12.2 7.7 10.1 87 1.1 SSW 24 28 13 15 1018.0 1018.0 0.0
27/07:00pm 12.3 7.5 10.2 87 1.1 SSW 26 30 14 16 1017.5 1017.5 0.0
27/06:30pm 12.3 7.8 10.2 87 1.1 SSW 24 30 13 16 1017.1 1017.1 0.0
27/06:00pm 12.8 8.4 10.3 85 1.3 SSW 24 28 13 15 1017.0 1017.0 0.0
27/05:30pm 13.4 8.7 10.6 83 1.5 SSW 26 30 14 16 1016.8 1016.8 0.0
27/05:00pm 13.7 9.8 10.7 82 1.6 S 22 28 12 15 1016.4 1016.4 0.0
27/04:30pm 13.6 8.5 10.6 82 1.6 SSW 28 33 15 18 1016.2 1016.2 0.0
27/04:00pm 14.1 9.1 10.9 81 1.7 SSW 28 32 15 17 1016.1 1016.1 0.0
27/03:30pm 14.8 9.8 11.0 78 2.0 SSW 28 33 15 18 1016.1 1016.1 0.0
27/03:00pm 15.0 10.4 11.0 77 2.1 SSW 26 28 14 15 1016.1 1016.1 0.0
27/02:30pm 15.2 11.0 11.2 77 2.1 SSW 24 28 13 15 1016.0 1016.0 0.0
27/02:00pm 15.7 12.6 11.7 77 2.2 SSW 19 24 10 13 1016.1 1016.1 0.0
27/01:30pm 15.7 12.9 11.5 76 2.3 SSW 17 19 9 10 1016.3 1016.3 0.0
27/01:00pm 15.6 12.9 11.6 77 2.2 SSW 17 19 9 10 1016.4 1016.4 0.0
27/12:30pm 16.3 14.1 12.1 76 2.3 SW 15 17 8 9 1016.6 1016.6 0.0
27/12:00pm 16.0 14.5 12.0 77 2.2 SW 11 13 6 7 1016.7 1016.7 0.0
27/11:30am 15.3 13.8 11.9 80 1.8 SW 11 13 6 7 1016.8 1016.8 0.0
27/11:00am 14.9 13.4 12.0 83 1.6 SW 11 15 6 8 1016.6 1016.6 0.0
27/10:30am 14.6 14.6 12.3 86 1.3 SW 4 6 2 3 1016.8 1016.8 0.0
27/10:00am 13.4 13.1 11.6 89 1.0 S 4 7 2 4 1016.8 1016.8 0.0
27/09:30am 12.8 11.9 11.2 90 0.8 ESE 7 11 4 6 1016.7 1016.7 0.0
27/09:00am 12.1 10.3 10.8 92 0.7 ESE 11 15 6 8 1016.6 1016.6 1.0
27/08:30am 11.9 10.9 11.0 94 0.5 SE 7 13 4 7 1016.6 1016.6 1.0
27/08:00am 11.6 10.7 10.8 95 0.4 SE 6 11 3 6 1016.4 1016.4 1.0
27/07:30am 11.0 9.4 10.2 95 0.4 SE 9 13 5 7 1016.4 1016.4 1.0
27/07:00am 10.8 9.7 10.0 95 0.4 SSE 6 9 3 5 1016.3 1016.3 1.0
27/06:30am 10.6 9.3 9.8 95 0.4 SE 7 9 4 5 1016.1 1016.1 1.0
27/06:00am 10.5 9.1 9.6 94 0.5 SE 7 9 4 5 1015.6 1015.7 1.0
27/05:30am 10.7 8.6 9.8 94 0.5 SSE 11 15 6 8 1015.4 1015.5 1.0
27/05:00am 10.8 8.4 9.9 94 0.5 S 13 17 7 9 1015.2 1015.3 1.0
27/04:30am 11.1 9.1 10.2 94 0.5 S 11 13 6 7 1015.1 1015.2 1.0
27/04:00am 11.4 10.3 10.6 95 0.4 S 7 11 4 6 1015.1 1015.2 1.0
27/03:30am 11.5 8.9 10.7 95 0.4 S 15 19 8 10 1014.9 1015.0 1.0
27/03:00am 11.4 8.8 10.6 95 0.4 SSW 15 17 8 9 1014.8 1014.9 1.0
27/02:30am 11.2 9.3 10.6 96 0.3 S 11 13 6 7 1014.8 1014.9 1.0
27/02:00am 10.8 10.1 10.2 96 0.3 SSE 4 6 2 3 1014.8 1014.9 1.0
27/01:30am 10.7 9.7 10.2 97 0.3 SSE 6 7 3 4 1014.9 1015.0 1.0
27/01:00am 10.7 9.5 10.2 97 0.3 ESE 7 9 4 5 1015.1 1015.2 1.0
27/12:30am 10.7 8.7 10.2 97 0.3 ESE 11 13 6 7 1015.2 1015.3 1.0
27/12:00am 10.6 8.2 10.1 97 0.3 ESE 13 17 7 9 1015.1 1015.2 1.0
 
Date/Time
EST
Temp
°C
App
Temp
°C
Dew
Point
°C
Rel
Hum
%
Delta-T
°C
Wind Press
QNH
hPa
Press
MSL
hPa
Rain since
9am
mm
Dir  Spd
km/h
Gust
km/h
Spd
kts
Gust
kts
26/11:30pm 10.5 8.8 10.0 97 0.3 ESE 9 13 5 7 1015.2 1015.3 1.0
26/11:00pm 10.4 9.1 9.9 97 0.3 SE 7 9 4 5 1015.2 1015.3 1.0
26/10:30pm 10.6 8.6 10.1 97 0.3 ESE 11 13 6 7 1015.2 1015.3 1.0
26/10:00pm 10.6 8.9 10.0 96 0.3 ESE 9 13 5 7 1015.2 1015.3 1.0
26/09:30pm 10.7 9.4 10.1 96 0.3 SSE 7 9 4 5 1015.1 1015.2 1.0
26/09:00pm 10.8 9.7 10.0 95 0.4 SE 6 7 3 4 1015.0 1015.1 1.0
26/08:30pm 10.8 10.1 9.9 94 0.5 SE 4 6 2 3 1015.1 1015.2 0.8
26/08:00pm 10.8 9.4 9.6 92 0.6 SE 7 9 4 5 1014.9 1015.0 0.6
26/07:30pm 10.9 9.2 9.7 92 0.6 S 9 13 5 7 1014.6 1014.7 0.6
26/07:00pm 10.9 8.0 9.7 92 0.6 SSW 15 17 8 9 1014.2 1014.3 0.6
26/06:30pm 10.9 7.6 9.7 92 0.6 SSW 17 20 9 11 1013.9 1014.0 0.6
26/06:00pm 11.3 8.5 10.0 92 0.7 SSW 15 17 8 9 1013.8 1013.9 0.6
26/05:30pm 11.7 9.7 10.1 90 0.8 WSW 11 17 6 9 1013.4 1013.5 0.6
26/05:00pm 11.8 9.5 10.4 91 0.7 SW 13 17 7 9 1013.2 1013.3 0.6
26/04:30pm 11.8 9.4 10.2 90 0.8 WSW 13 17 7 9 1013.0 1013.1 0.6
26/04:00pm 12.2 9.6 10.6 90 0.8 WSW 15 20 8 11 1012.8 1012.9 0.6
26/03:30pm 12.4 9.8 10.8 90 0.8 SW 15 19 8 10 1012.8 1012.9 0.6
26/03:00pm 12.8 10.3 10.9 88 1.0 SW 15 19 8 10 1012.8 1012.9 0.6
26/02:30pm 13.5 11.4 9.7 78 1.9 W 11 17 6 9 1012.9 1013.0 0.2
26/02:00pm 15.2 14.7 10.8 75 2.3 NNW 4 9 2 5 1012.8 1012.9 0.2
26/01:30pm 16.3 15.9 12.3 77 2.2 NNW 6 9 3 5 1012.9 1013.0 0.2
26/01:00pm 14.9 14.4 10.9 77 2.1 N 4 7 2 4 1013.0 1013.1 0.2
26/12:30pm 15.0 14.7 11.6 80 1.8 N 4 6 2 3 1013.2 1013.3 0.2
26/12:00pm 13.4 12.1 11.3 87 1.1 NNW 9 15 5 8 1013.6 1013.7 0.2
26/11:30am 12.4 9.9 11.0 91 0.7 NNW 15 19 8 10 1013.6 1013.7 0.2
26/11:00am 12.1 8.7 10.7 91 0.7 NW 19 22 10 12 1013.9 1014.0 0.2
26/10:30am 11.5 8.4 10.2 92 0.7 N 17 20 9 11 1014.1 1014.2 0.2
26/10:00am 11.2 7.9 9.6 90 0.8 N 17 22 9 12 1014.2 1014.3 0.0
26/09:30am 11.3 7.6 9.4 88 1.0 NNE 19 24 10 13 1013.9 1014.0 0.0
26/09:00am 11.2 6.9 9.5 89 0.9 NNE 22 26 12 14 1013.8 1013.9 0.8
26/08:30am 10.7 5.5 9.0 89 0.8 NNE 26 32 14 17 1013.8 1013.9 0.4
26/08:00am 10.9 5.7 8.8 87 1.0 NNE 26 32 14 17 1013.8 1013.9 0.2
26/07:30am 11.3 6.1 8.9 85 1.2 NNE 26 30 14 16 1013.7 1013.8 0.0
26/07:00am 11.4 5.9 9.0 85 1.2 N 28 32 15 17 1013.7 1013.8 0.0
26/06:30am 11.5 6.6 8.5 82 1.5 NNE 24 28 13 15 1013.6 1013.7 0.0
26/06:00am 11.4 6.5 8.6 83 1.4 N 24 28 13 15 1013.3 1013.4 0.0
26/05:30am 11.1 5.4 8.3 83 1.4 NNE 28 30 15 16 1013.1 1013.2 0.0
26/05:00am 11.2 5.5 8.4 83 1.4 NNE 28 33 15 18 1013.0 1013.1 0.0
26/04:30am 11.3 5.9 8.2 81 1.5 NNE 26 32 14 17 1013.0 1013.1 0.0
26/04:00am 11.5 6.2 8.5 82 1.5 NNE 26 30 14 16 1013.0 1013.1 0.0
26/03:30am 11.5 5.8 8.4 81 1.5 NNE 28 33 15 18 1013.0 1013.1 0.0
26/03:00am 11.4 5.7 8.3 81 1.5 NNE 28 33 15 18 1013.0 1013.1 0.0
26/02:30am 11.2 5.8 8.1 81 1.5 NNE 26 30 14 16 1013.3 1013.4 0.0
26/02:00am 11.5 6.7 8.7 83 1.4 N 24 32 13 17 1013.6 1013.7 0.0
26/01:30am 11.4 5.7 8.4 82 1.5 NNE 28 32 15 17 1013.7 1013.8 0.0
26/01:00am 11.3 5.6 8.5 83 1.4 NNE 28 33 15 18 1014.0 1014.1 0.0
26/12:30am 11.1 5.4 8.3 83 1.4 NNE 28 35 15 19 1014.1 1014.2 0.0
26/12:00am 11.7 5.1 8.4 80 1.6 N 33 41 18 22 1014.2 1014.3 0.0
 
Date/Time
EST
Temp
°C
App
Temp
°C
Dew
Point
°C
Rel
Hum
%
Delta-T
°C
Wind Press
QNH
hPa
Press
MSL
hPa
Rain since
9am
mm
Dir  Spd
km/h
Gust
km/h
Spd
kts
Gust
kts
25/11:30pm 11.9 5.2 8.2 78 1.8 N 33 41 18 22 1014.2 1014.3 0.0
25/11:00pm 12.0 4.9 8.1 77 1.9 N 35 41 19 22 1014.2 1014.3 0.0
25/10:30pm 12.1 5.4 8.2 77 1.9 N 33 41 18 22 1014.2 1014.3 0.0
25/10:00pm 11.9 5.4 8.0 77 1.9 N 32 39 17 21 1014.3 1014.4 0.0
25/09:30pm 11.9 6.2 8.2 78 1.8 N 28 35 15 19 1014.4 1014.5 0.0
25/09:00pm 11.8 6.1 8.5 80 1.6 N 28 33 15 18 1014.4 1014.5 0.0
25/08:30pm 11.6 5.5 8.3 80 1.6 N 30 37 16 20 1014.3 1014.4 0.0
25/08:00pm 11.6 4.8 7.5 76 2.0 N 33 41 18 22 1014.2 1014.3 0.0
25/07:30pm 11.8 5.8 7.1 73 2.3 NNW 28 37 15 20 1014.1 1014.2 0.0
25/07:00pm 11.8 5.3 6.7 71 2.4 N 30 35 16 19 1013.8 1013.9 0.0
25/06:30pm 11.6 5.4 6.3 70 2.5 NNW 28 37 15 20 1013.6 1013.7 0.0
25/06:00pm 11.6 6.1 6.1 69 2.6 NNW 24 33 13 18 1013.5 1013.6 0.0
25/05:30pm 11.8 6.7 6.1 68 2.7 NNW 22 37 12 20 1013.3 1013.4 0.0
25/05:00pm 11.8 6.3 5.9 67 2.8 NNW 24 33 13 18 1013.2 1013.3 0.0
25/04:30pm 12.0 6.1 5.6 65 3.0 NNW 26 32 14 17 1013.0 1013.1 0.0
25/04:00pm 12.1 5.7 5.3 63 3.1 NNW 28 37 15 20 1012.8 1012.9 0.0
25/03:30pm 12.6 6.0 6.0 64 3.1 NNW 30 37 16 20 1012.9 1013.0 0.0
25/03:00pm 12.2 6.3 6.0 66 2.9 NW 26 35 14 19 1013.0 1013.1 0.0
25/02:30pm 11.9 6.5 6.4 69 2.6 NW 24 35 13 19 1013.2 1013.3 0.0
25/02:00pm 12.4 6.7 6.7 68 2.7 NW 26 35 14 19 1013.1 1013.2 0.0
25/01:30pm 13.4 8.1 7.0 65 3.1 NW 24 30 13 16 1012.8 1012.9 0.0
25/01:00pm 13.4 8.2 7.2 66 3.0 NW 24 32 13 17 1012.9 1013.0 0.0
25/12:30pm 12.8 7.5 7.0 68 2.8 NW 24 30 13 16 1013.2 1013.3 0.0
25/12:00pm 13.1 8.5 8.2 72 2.4 NNW 22 30 12 16 1013.4 1013.5 0.0
25/11:30am 11.6 6.1 7.5 76 2.0 NW 26 33 14 18 1013.5 1013.6 0.0
25/11:00am 11.8 6.4 7.9 77 1.9 NNW 26 39 14 21 1013.5 1013.6 0.0

Other formats

Comma delimited format used in spreadsheet applications
http://www.bom.gov.au/fwo/IDT60801/IDT60801.94974.axf

JavaScript Object Notation format (JSON) in row-major order
http://www.bom.gov.au/fwo/IDT60801/IDT60801.94974.json

Data quality

Most of these data are generated automatically and are frequently updated. Quality checks on data are not normally performed. It is possible for incorrect values to appear. Refer to information at About Latest Weather Observations and please check the disclaimer before using these data.